sensor_id;sensor_type;location;lat;lon;timestamp;P1;durP1;ratioP1;P2;durP2;ratioP2
31730;SDS011;18310;55.586;12.286;2023-05-21T00:02:34;3.27;;;1.10;;
31730;SDS011;18310;55.586;12.286;2023-05-21T00:05:40;7.10;;;0.95;;
31730;SDS011;18310;55.586;12.286;2023-05-21T00:08:44;3.10;;;0.95;;
31730;SDS011;18310;55.586;12.286;2023-05-21T00:11:47;2.17;;;0.90;;
31730;SDS011;18310;55.586;12.286;2023-05-21T00:14:50;1.40;;;0.70;;
31730;SDS011;18310;55.586;12.286;2023-05-21T00:17:54;3.03;;;0.88;;
31730;SDS011;18310;55.586;12.286;2023-05-21T00:20:58;8.37;;;1.10;;
31730;SDS011;18310;55.586;12.286;2023-05-21T00:24:02;1.95;;;0.77;;
31730;SDS011;18310;55.586;12.286;2023-05-21T00:27:06;6.18;;;1.33;;
31730;SDS011;18310;55.586;12.286;2023-05-21T00:30:09;3.47;;;0.80;;
31730;SDS011;18310;55.586;12.286;2023-05-21T00:33:13;3.25;;;0.93;;
31730;SDS011;18310;55.586;12.286;2023-05-21T00:36:18;3.47;;;1.20;;
31730;SDS011;18310;55.586;12.286;2023-05-21T00:39:24;3.92;;;0.95;;
31730;SDS011;18310;55.586;12.286;2023-05-21T00:42:27;3.80;;;1.03;;
31730;SDS011;18310;55.586;12.286;2023-05-21T00:45:31;2.83;;;0.98;;
31730;SDS011;18310;55.586;12.286;2023-05-21T00:48:37;3.75;;;1.10;;
31730;SDS011;18310;55.586;12.286;2023-05-21T00:51:43;4.78;;;0.98;;
31730;SDS011;18310;55.586;12.286;2023-05-21T00:54:47;2.70;;;1.20;;
31730;SDS011;18310;55.586;12.286;2023-05-21T00:57:51;2.55;;;1.05;;
31730;SDS011;18310;55.586;12.286;2023-05-21T01:00:55;2.57;;;0.93;;
31730;SDS011;18310;55.586;12.286;2023-05-21T01:03:59;9.83;;;1.07;;
31730;SDS011;18310;55.586;12.286;2023-05-21T01:07:04;3.33;;;1.23;;
31730;SDS011;18310;55.586;12.286;2023-05-21T01:10:10;2.85;;;1.00;;
31730;SDS011;18310;55.586;12.286;2023-05-21T01:13:14;3.72;;;1.20;;
31730;SDS011;18310;55.586;12.286;2023-05-21T01:19:22;2.45;;;1.00;;
31730;SDS011;18310;55.586;12.286;2023-05-21T01:25:35;2.65;;;0.80;;
31730;SDS011;18310;55.586;12.286;2023-05-21T01:28:38;6.22;;;1.08;;
31730;SDS011;18310;55.586;12.286;2023-05-21T01:31:49;2.60;;;1.13;;
31730;SDS011;18310;55.586;12.286;2023-05-21T01:34:58;2.10;;;0.80;;
31730;SDS011;18310;55.586;12.286;2023-05-21T01:38:08;2.78;;;1.20;;
31730;SDS011;18310;55.586;12.286;2023-05-21T01:41:17;2.45;;;1.10;;
31730;SDS011;18310;55.586;12.286;2023-05-21T01:44:23;1.60;;;0.75;;
31730;SDS011;18310;55.586;12.286;2023-05-21T01:47:27;3.80;;;0.98;;
31730;SDS011;18310;55.586;12.286;2023-05-21T01:50:33;3.33;;;1.10;;
31730;SDS011;18310;55.586;12.286;2023-05-21T01:53:37;1.88;;;0.90;;
31730;SDS011;18310;55.586;12.286;2023-05-21T01:56:42;2.22;;;0.90;;
31730;SDS011;18310;55.586;12.286;2023-05-21T01:59:46;2.60;;;1.10;;
31730;SDS011;18310;55.586;12.286;2023-05-21T02:02:50;3.10;;;1.10;;
31730;SDS011;18310;55.586;12.286;2023-05-21T02:05:54;2.88;;;1.05;;
31730;SDS011;18310;55.586;12.286;2023-05-21T02:08:58;5.17;;;0.90;;
31730;SDS011;18310;55.586;12.286;2023-05-21T02:12:03;2.30;;;1.07;;
31730;SDS011;18310;55.586;12.286;2023-05-21T02:15:06;4.35;;;1.13;;
31730;SDS011;18310;55.586;12.286;2023-05-21T02:18:10;3.80;;;1.00;;
31730;SDS011;18310;55.586;12.286;2023-05-21T02:21:17;2.30;;;0.88;;
31730;SDS011;18310;55.586;12.286;2023-05-21T02:24:21;2.78;;;1.00;;
31730;SDS011;18310;55.586;12.286;2023-05-21T02:27:26;5.43;;;1.00;;
31730;SDS011;18310;55.586;12.286;2023-05-21T02:30:32;2.70;;;1.17;;
31730;SDS011;18310;55.586;12.286;2023-05-21T02:33:38;4.18;;;1.13;;
31730;SDS011;18310;55.586;12.286;2023-05-21T02:36:43;3.20;;;1.15;;
31730;SDS011;18310;55.586;12.286;2023-05-21T02:39:49;5.07;;;1.25;;
31730;SDS011;18310;55.586;12.286;2023-05-21T02:42:53;2.60;;;1.08;;
31730;SDS011;18310;55.586;12.286;2023-05-21T02:45:56;2.58;;;1.10;;
31730;SDS011;18310;55.586;12.286;2023-05-21T02:49:00;2.37;;;0.93;;
31730;SDS011;18310;55.586;12.286;2023-05-21T02:52:03;3.03;;;1.00;;
31730;SDS011;18310;55.586;12.286;2023-05-21T02:55:08;3.83;;;0.90;;
31730;SDS011;18310;55.586;12.286;2023-05-21T02:58:13;2.95;;;1.10;;
31730;SDS011;18310;55.586;12.286;2023-05-21T03:01:16;2.38;;;1.05;;
31730;SDS011;18310;55.586;12.286;2023-05-21T03:04:20;2.15;;;0.70;;
31730;SDS011;18310;55.586;12.286;2023-05-21T03:07:24;3.55;;;1.30;;
31730;SDS011;18310;55.586;12.286;2023-05-21T03:10:27;5.63;;;1.40;;
31730;SDS011;18310;55.586;12.286;2023-05-21T03:13:32;2.70;;;1.30;;
31730;SDS011;18310;55.586;12.286;2023-05-21T03:16:35;3.40;;;0.70;;
31730;SDS011;18310;55.586;12.286;2023-05-21T03:19:40;3.10;;;1.17;;
31730;SDS011;18310;55.586;12.286;2023-05-21T03:22:44;3.17;;;1.02;;
31730;SDS011;18310;55.586;12.286;2023-05-21T03:25:49;4.03;;;0.88;;
31730;SDS011;18310;55.586;12.286;2023-05-21T03:28:53;1.93;;;1.00;;
31730;SDS011;18310;55.586;12.286;2023-05-21T03:31:57;1.48;;;0.80;;
31730;SDS011;18310;55.586;12.286;2023-05-21T03:35:03;3.22;;;0.95;;
31730;SDS011;18310;55.586;12.286;2023-05-21T03:38:06;3.72;;;1.15;;
31730;SDS011;18310;55.586;12.286;2023-05-21T03:41:10;4.27;;;0.93;;
31730;SDS011;18310;55.586;12.286;2023-05-21T03:44:15;6.03;;;0.98;;
31730;SDS011;18310;55.586;12.286;2023-05-21T03:47:18;4.22;;;1.17;;
31730;SDS011;18310;55.586;12.286;2023-05-21T03:50:22;1.45;;;0.70;;
31730;SDS011;18310;55.586;12.286;2023-05-21T03:53:25;5.15;;;1.20;;
31730;SDS011;18310;55.586;12.286;2023-05-21T03:56:28;2.63;;;0.70;;
31730;SDS011;18310;55.586;12.286;2023-05-21T03:59:33;2.60;;;0.88;;
31730;SDS011;18310;55.586;12.286;2023-05-21T04:02:36;1.83;;;0.88;;
31730;SDS011;18310;55.586;12.286;2023-05-21T04:05:40;4.10;;;0.90;;
31730;SDS011;18310;55.586;12.286;2023-05-21T04:08:43;2.72;;;0.73;;
31730;SDS011;18310;55.586;12.286;2023-05-21T04:11:47;2.97;;;0.98;;
31730;SDS011;18310;55.586;12.286;2023-05-21T04:14:52;1.87;;;0.77;;
31730;SDS011;18310;55.586;12.286;2023-05-21T04:17:55;3.17;;;1.05;;
31730;SDS011;18310;55.586;12.286;2023-05-21T04:20:59;2.03;;;0.88;;
31730;SDS011;18310;55.586;12.286;2023-05-21T04:24:03;3.78;;;0.90;;
31730;SDS011;18310;55.586;12.286;2023-05-21T04:27:06;2.80;;;1.27;;
31730;SDS011;18310;55.586;12.286;2023-05-21T04:33:15;3.00;;;0.88;;
31730;SDS011;18310;55.586;12.286;2023-05-21T04:36:21;2.38;;;0.75;;
31730;SDS011;18310;55.586;12.286;2023-05-21T04:39:25;3.20;;;0.85;;
31730;SDS011;18310;55.586;12.286;2023-05-21T04:42:29;3.17;;;1.10;;
31730;SDS011;18310;55.586;12.286;2023-05-21T04:45:35;2.67;;;0.95;;
31730;SDS011;18310;55.586;12.286;2023-05-21T04:48:38;3.17;;;1.20;;
31730;SDS011;18310;55.586;12.286;2023-05-21T04:54:46;2.97;;;0.90;;
31730;SDS011;18310;55.586;12.286;2023-05-21T04:57:49;2.92;;;1.02;;
31730;SDS011;18310;55.586;12.286;2023-05-21T05:00:54;4.03;;;1.33;;
31730;SDS011;18310;55.586;12.286;2023-05-21T05:03:58;4.07;;;1.30;;
31730;SDS011;18310;55.586;12.286;2023-05-21T05:07:02;5.53;;;1.20;;
31730;SDS011;18310;55.586;12.286;2023-05-21T05:10:06;3.80;;;0.90;;
31730;SDS011;18310;55.586;12.286;2023-05-21T05:13:10;2.58;;;0.98;;
31730;SDS011;18310;55.586;12.286;2023-05-21T05:16:14;3.90;;;1.23;;
31730;SDS011;18310;55.586;12.286;2023-05-21T05:19:19;3.90;;;0.70;;
31730;SDS011;18310;55.586;12.286;2023-05-21T05:22:22;2.47;;;0.80;;
31730;SDS011;18310;55.586;12.286;2023-05-21T05:26:00;3.00;;;0.80;;
31730;SDS011;18310;55.586;12.286;2023-05-21T05:29:04;2.03;;;0.80;;
31730;SDS011;18310;55.586;12.286;2023-05-21T05:32:07;1.97;;;1.03;;
31730;SDS011;18310;55.586;12.286;2023-05-21T05:35:10;2.47;;;0.97;;
31730;SDS011;18310;55.586;12.286;2023-05-21T05:38:14;2.05;;;0.85;;
31730;SDS011;18310;55.586;12.286;2023-05-21T05:41:19;3.85;;;0.82;;
31730;SDS011;18310;55.586;12.286;2023-05-21T05:44:22;6.80;;;0.93;;
31730;SDS011;18310;55.586;12.286;2023-05-21T05:47:26;4.13;;;1.20;;
31730;SDS011;18310;55.586;12.286;2023-05-21T05:50:30;1.80;;;0.90;;
31730;SDS011;18310;55.586;12.286;2023-05-21T05:53:33;2.73;;;1.00;;
31730;SDS011;18310;55.586;12.286;2023-05-21T05:56:37;7.87;;;1.23;;
31730;SDS011;18310;55.586;12.286;2023-05-21T05:59:41;3.38;;;1.08;;
31730;SDS011;18310;55.586;12.286;2023-05-21T06:02:44;3.83;;;1.27;;
31730;SDS011;18310;55.586;12.286;2023-05-21T06:05:48;7.50;;;1.27;;
31730;SDS011;18310;55.586;12.286;2023-05-21T06:08:52;6.15;;;1.10;;
31730;SDS011;18310;55.586;12.286;2023-05-21T06:11:57;2.80;;;1.20;;
31730;SDS011;18310;55.586;12.286;2023-05-21T06:15:00;5.72;;;1.50;;
31730;SDS011;18310;55.586;12.286;2023-05-21T06:18:04;2.80;;;1.15;;
31730;SDS011;18310;55.586;12.286;2023-05-21T06:21:07;3.33;;;0.97;;
31730;SDS011;18310;55.586;12.286;2023-05-21T06:24:10;8.60;;;1.70;;
31730;SDS011;18310;55.586;12.286;2023-05-21T06:27:15;2.93;;;1.20;;
31730;SDS011;18310;55.586;12.286;2023-05-21T06:30:18;3.67;;;1.50;;
31730;SDS011;18310;55.586;12.286;2023-05-21T06:33:22;3.53;;;1.17;;
31730;SDS011;18310;55.586;12.286;2023-05-21T06:36:25;3.27;;;1.53;;
31730;SDS011;18310;55.586;12.286;2023-05-21T06:39:31;3.40;;;1.05;;
31730;SDS011;18310;55.586;12.286;2023-05-21T06:42:35;7.13;;;1.20;;
31730;SDS011;18310;55.586;12.286;2023-05-21T06:45:38;2.53;;;1.10;;
31730;SDS011;18310;55.586;12.286;2023-05-21T06:48:42;3.17;;;1.30;;
31730;SDS011;18310;55.586;12.286;2023-05-21T06:51:46;2.45;;;1.25;;
31730;SDS011;18310;55.586;12.286;2023-05-21T06:54:49;5.30;;;1.17;;
31730;SDS011;18310;55.586;12.286;2023-05-21T06:57:54;3.13;;;1.40;;
31730;SDS011;18310;55.586;12.286;2023-05-21T07:00:59;2.95;;;1.30;;
31730;SDS011;18310;55.586;12.286;2023-05-21T07:04:03;4.00;;;1.42;;
31730;SDS011;18310;55.586;12.286;2023-05-21T07:07:06;1.67;;;0.93;;
31730;SDS011;18310;55.586;12.286;2023-05-21T07:10:10;3.53;;;1.10;;
31730;SDS011;18310;55.586;12.286;2023-05-21T07:13:15;2.97;;;1.02;;
31730;SDS011;18310;55.586;12.286;2023-05-21T07:16:18;5.32;;;1.20;;
31730;SDS011;18310;55.586;12.286;2023-05-21T07:19:22;4.93;;;1.60;;
31730;SDS011;18310;55.586;12.286;2023-05-21T07:22:26;3.20;;;1.48;;
31730;SDS011;18310;55.586;12.286;2023-05-21T07:25:29;3.75;;;1.42;;
31730;SDS011;18310;55.586;12.286;2023-05-21T07:28:34;2.28;;;1.00;;
31730;SDS011;18310;55.586;12.286;2023-05-21T07:31:38;4.10;;;1.00;;
31730;SDS011;18310;55.586;12.286;2023-05-21T07:34:41;3.47;;;1.25;;
31730;SDS011;18310;55.586;12.286;2023-05-21T07:37:44;4.07;;;1.50;;
31730;SDS011;18310;55.586;12.286;2023-05-21T07:40:48;2.55;;;1.33;;
31730;SDS011;18310;55.586;12.286;2023-05-21T07:43:53;10.07;;;1.20;;
31730;SDS011;18310;55.586;12.286;2023-05-21T07:46:56;3.45;;;1.33;;
31730;SDS011;18310;55.586;12.286;2023-05-21T07:50:00;2.08;;;0.98;;
31730;SDS011;18310;55.586;12.286;2023-05-21T07:53:03;6.10;;;1.43;;
31730;SDS011;18310;55.586;12.286;2023-05-21T07:56:06;3.78;;;1.40;;
31730;SDS011;18310;55.586;12.286;2023-05-21T07:59:12;2.93;;;1.10;;
31730;SDS011;18310;55.586;12.286;2023-05-21T08:02:38;4.90;;;1.20;;
31730;SDS011;18310;55.586;12.286;2023-05-21T08:05:41;4.13;;;1.13;;
31730;SDS011;18310;55.586;12.286;2023-05-21T08:08:45;3.10;;;1.50;;
31730;SDS011;18310;55.586;12.286;2023-05-21T08:11:48;5.93;;;1.33;;
31730;SDS011;18310;55.586;12.286;2023-05-21T08:14:52;3.38;;;1.17;;
31730;SDS011;18310;55.586;12.286;2023-05-21T08:17:56;3.33;;;1.47;;
31730;SDS011;18310;55.586;12.286;2023-05-21T08:21:00;5.13;;;1.20;;
31730;SDS011;18310;55.586;12.286;2023-05-21T08:24:03;3.33;;;1.20;;
31730;SDS011;18310;55.586;12.286;2023-05-21T08:27:06;3.30;;;1.50;;
31730;SDS011;18310;55.586;12.286;2023-05-21T08:30:11;5.00;;;1.58;;
31730;SDS011;18310;55.586;12.286;2023-05-21T08:33:16;6.30;;;1.50;;
31730;SDS011;18310;55.586;12.286;2023-05-21T08:36:22;4.45;;;1.20;;
31730;SDS011;18310;55.586;12.286;2023-05-21T08:39:26;4.32;;;1.13;;
31730;SDS011;18310;55.586;12.286;2023-05-21T08:42:32;4.95;;;1.50;;
31730;SDS011;18310;55.586;12.286;2023-05-21T08:45:43;3.25;;;1.33;;
31730;SDS011;18310;55.586;12.286;2023-05-21T08:48:48;3.28;;;1.40;;
31730;SDS011;18310;55.586;12.286;2023-05-21T08:51:55;4.40;;;1.63;;
31730;SDS011;18310;55.586;12.286;2023-05-21T08:54:59;7.50;;;1.77;;
31730;SDS011;18310;55.586;12.286;2023-05-21T08:58:05;4.25;;;1.63;;
31730;SDS011;18310;55.586;12.286;2023-05-21T09:01:08;3.78;;;1.17;;
31730;SDS011;18310;55.586;12.286;2023-05-21T09:04:14;3.25;;;1.38;;
31730;SDS011;18310;55.586;12.286;2023-05-21T09:07:23;4.53;;;1.58;;
31730;SDS011;18310;55.586;12.286;2023-05-21T09:10:31;5.60;;;1.23;;
31730;SDS011;18310;55.586;12.286;2023-05-21T09:13:38;2.90;;;1.35;;
31730;SDS011;18310;55.586;12.286;2023-05-21T09:23:18;5.82;;;1.45;;
31730;SDS011;18310;55.586;12.286;2023-05-21T09:26:22;4.00;;;1.73;;
31730;SDS011;18310;55.586;12.286;2023-05-21T09:29:26;3.25;;;1.60;;
31730;SDS011;18310;55.586;12.286;2023-05-21T09:32:30;2.45;;;1.23;;
31730;SDS011;18310;55.586;12.286;2023-05-21T09:35:35;4.22;;;1.60;;
31730;SDS011;18310;55.586;12.286;2023-05-21T09:38:38;3.97;;;1.48;;
31730;SDS011;18310;55.586;12.286;2023-05-21T09:41:42;3.35;;;1.70;;
31730;SDS011;18310;55.586;12.286;2023-05-21T09:44:46;4.27;;;1.27;;
31730;SDS011;18310;55.586;12.286;2023-05-21T09:47:50;2.80;;;1.60;;
31730;SDS011;18310;55.586;12.286;2023-05-21T09:50:55;6.13;;;1.92;;
31730;SDS011;18310;55.586;12.286;2023-05-21T09:54:10;5.72;;;1.45;;
31730;SDS011;18310;55.586;12.286;2023-05-21T09:57:13;6.25;;;1.65;;
31730;SDS011;18310;55.586;12.286;2023-05-21T10:00:18;4.00;;;1.98;;
31730;SDS011;18310;55.586;12.286;2023-05-21T10:03:22;2.70;;;1.40;;
31730;SDS011;18310;55.586;12.286;2023-05-21T10:06:30;4.68;;;1.27;;
31730;SDS011;18310;55.586;12.286;2023-05-21T10:09:36;5.68;;;1.50;;
31730;SDS011;18310;55.586;12.286;2023-05-21T10:12:40;4.28;;;1.52;;
31730;SDS011;18310;55.586;12.286;2023-05-21T10:15:47;3.67;;;1.48;;
31730;SDS011;18310;55.586;12.286;2023-05-21T10:18:52;5.10;;;1.60;;
31730;SDS011;18310;55.586;12.286;2023-05-21T10:21:59;3.55;;;1.73;;
31730;SDS011;18310;55.586;12.286;2023-05-21T10:25:05;5.38;;;1.60;;
31730;SDS011;18310;55.586;12.286;2023-05-21T10:28:09;6.15;;;2.00;;
31730;SDS011;18310;55.586;12.286;2023-05-21T10:31:15;4.40;;;1.73;;
31730;SDS011;18310;55.586;12.286;2023-05-21T10:34:18;3.53;;;1.45;;
31730;SDS011;18310;55.586;12.286;2023-05-21T10:37:25;5.30;;;1.98;;
31730;SDS011;18310;55.586;12.286;2023-05-21T10:40:29;5.13;;;1.55;;
31730;SDS011;18310;55.586;12.286;2023-05-21T10:43:47;4.20;;;1.70;;
31730;SDS011;18310;55.586;12.286;2023-05-21T10:46:58;3.83;;;2.05;;
31730;SDS011;18310;55.586;12.286;2023-05-21T10:50:25;4.93;;;1.48;;
31730;SDS011;18310;55.586;12.286;2023-05-21T10:53:58;4.22;;;1.88;;
31730;SDS011;18310;55.586;12.286;2023-05-21T10:57:36;3.78;;;1.77;;
31730;SDS011;18310;55.586;12.286;2023-05-21T11:00:51;4.13;;;1.67;;
31730;SDS011;18310;55.586;12.286;2023-05-21T11:03:56;4.38;;;1.75;;
31730;SDS011;18310;55.586;12.286;2023-05-21T11:07:00;4.18;;;1.80;;
31730;SDS011;18310;55.586;12.286;2023-05-21T11:13:27;2.97;;;1.52;;
31730;SDS011;18310;55.586;12.286;2023-05-21T11:16:34;2.65;;;1.17;;
31730;SDS011;18310;55.586;12.286;2023-05-21T11:19:38;2.95;;;1.40;;
31730;SDS011;18310;55.586;12.286;2023-05-21T11:22:43;2.40;;;1.38;;
31730;SDS011;18310;55.586;12.286;2023-05-21T11:25:50;4.82;;;1.65;;
31730;SDS011;18310;55.586;12.286;2023-05-21T11:29:07;3.17;;;1.77;;
31730;SDS011;18310;55.586;12.286;2023-05-21T11:32:13;2.55;;;1.40;;
31730;SDS011;18310;55.586;12.286;2023-05-21T11:35:18;3.35;;;1.60;;
31730;SDS011;18310;55.586;12.286;2023-05-21T11:38:26;3.88;;;1.48;;
31730;SDS011;18310;55.586;12.286;2023-05-21T11:41:31;7.10;;;1.70;;
31730;SDS011;18310;55.586;12.286;2023-05-21T11:44:54;4.10;;;1.60;;
31730;SDS011;18310;55.586;12.286;2023-05-21T11:47:58;4.00;;;1.67;;
31730;SDS011;18310;55.586;12.286;2023-05-21T11:51:02;3.28;;;1.65;;
31730;SDS011;18310;55.586;12.286;2023-05-21T11:54:07;5.32;;;1.60;;
31730;SDS011;18310;55.586;12.286;2023-05-21T11:57:11;5.03;;;1.77;;
31730;SDS011;18310;55.586;12.286;2023-05-21T12:00:18;5.60;;;2.08;;
31730;SDS011;18310;55.586;12.286;2023-05-21T12:03:22;3.55;;;1.70;;
31730;SDS011;18310;55.586;12.286;2023-05-21T12:06:28;5.43;;;2.10;;
31730;SDS011;18310;55.586;12.286;2023-05-21T12:09:37;5.03;;;2.20;;
31730;SDS011;18310;55.586;12.286;2023-05-21T12:12:41;6.20;;;2.13;;
31730;SDS011;18310;55.586;12.286;2023-05-21T12:15:58;3.53;;;1.70;;
31730;SDS011;18310;55.586;12.286;2023-05-21T12:19:02;3.85;;;1.63;;
31730;SDS011;18310;55.586;12.286;2023-05-21T12:22:05;7.20;;;2.17;;
31730;SDS011;18310;55.586;12.286;2023-05-21T12:28:14;3.70;;;1.77;;
31730;SDS011;18310;55.586;12.286;2023-05-21T12:31:19;4.88;;;1.70;;
31730;SDS011;18310;55.586;12.286;2023-05-21T12:34:35;4.25;;;1.90;;
31730;SDS011;18310;55.586;12.286;2023-05-21T12:37:39;6.03;;;1.90;;
31730;SDS011;18310;55.586;12.286;2023-05-21T12:43:47;4.15;;;1.60;;
31730;SDS011;18310;55.586;12.286;2023-05-21T12:46:52;4.93;;;1.60;;
31730;SDS011;18310;55.586;12.286;2023-05-21T12:49:56;2.88;;;1.70;;
31730;SDS011;18310;55.586;12.286;2023-05-21T12:53:22;3.53;;;2.00;;
31730;SDS011;18310;55.586;12.286;2023-05-21T12:56:25;6.28;;;2.25;;
31730;SDS011;18310;55.586;12.286;2023-05-21T12:59:29;6.25;;;1.88;;
31730;SDS011;18310;55.586;12.286;2023-05-21T13:02:46;9.38;;;2.33;;
31730;SDS011;18310;55.586;12.286;2023-05-21T13:05:56;7.68;;;1.92;;
31730;SDS011;18310;55.586;12.286;2023-05-21T13:09:01;3.95;;;2.08;;
31730;SDS011;18310;55.586;12.286;2023-05-21T13:12:05;4.00;;;1.65;;
31730;SDS011;18310;55.586;12.286;2023-05-21T13:15:08;6.15;;;2.38;;
31730;SDS011;18310;55.586;12.286;2023-05-21T13:18:11;8.75;;;2.13;;
31730;SDS011;18310;55.586;12.286;2023-05-21T13:21:16;4.20;;;2.08;;
31730;SDS011;18310;55.586;12.286;2023-05-21T13:24:21;3.20;;;1.75;;
31730;SDS011;18310;55.586;12.286;2023-05-21T13:27:26;4.63;;;2.00;;
31730;SDS011;18310;55.586;12.286;2023-05-21T13:30:30;4.25;;;1.58;;
31730;SDS011;18310;55.586;12.286;2023-05-21T13:33:34;3.38;;;2.00;;
31730;SDS011;18310;55.586;12.286;2023-05-21T13:36:38;10.87;;;1.77;;
31730;SDS011;18310;55.586;12.286;2023-05-21T13:39:43;4.07;;;1.83;;
31730;SDS011;18310;55.586;12.286;2023-05-21T13:42:47;3.17;;;2.15;;
31730;SDS011;18310;55.586;12.286;2023-05-21T13:45:50;6.60;;;1.90;;
31730;SDS011;18310;55.586;12.286;2023-05-21T13:48:54;5.45;;;2.30;;
31730;SDS011;18310;55.586;12.286;2023-05-21T13:51:58;3.45;;;1.98;;
31730;SDS011;18310;55.586;12.286;2023-05-21T13:58:07;4.03;;;1.92;;
31730;SDS011;18310;55.586;12.286;2023-05-21T14:01:10;9.25;;;2.75;;
31730;SDS011;18310;55.586;12.286;2023-05-21T14:07:18;15.40;;;2.83;;
31730;SDS011;18310;55.586;12.286;2023-05-21T14:10:24;4.55;;;2.47;;
31730;SDS011;18310;55.586;12.286;2023-05-21T14:13:28;4.47;;;2.40;;
31730;SDS011;18310;55.586;12.286;2023-05-21T14:16:31;6.63;;;2.45;;
31730;SDS011;18310;55.586;12.286;2023-05-21T14:19:35;4.50;;;2.35;;
31730;SDS011;18310;55.586;12.286;2023-05-21T14:22:38;5.68;;;2.72;;
31730;SDS011;18310;55.586;12.286;2023-05-21T14:25:44;9.25;;;2.67;;
31730;SDS011;18310;55.586;12.286;2023-05-21T14:28:47;6.00;;;2.95;;
31730;SDS011;18310;55.586;12.286;2023-05-21T14:31:50;9.17;;;3.00;;
31730;SDS011;18310;55.586;12.286;2023-05-21T14:34:54;9.30;;;2.65;;
31730;SDS011;18310;55.586;12.286;2023-05-21T14:38:00;7.18;;;2.85;;
31730;SDS011;18310;55.586;12.286;2023-05-21T14:41:04;9.10;;;2.90;;
31730;SDS011;18310;55.586;12.286;2023-05-21T14:44:08;7.03;;;2.47;;
31730;SDS011;18310;55.586;12.286;2023-05-21T14:47:11;4.87;;;2.57;;
31730;SDS011;18310;55.586;12.286;2023-05-21T14:50:15;5.03;;;2.85;;
31730;SDS011;18310;55.586;12.286;2023-05-21T14:53:19;5.50;;;2.92;;
31730;SDS011;18310;55.586;12.286;2023-05-21T14:56:25;7.45;;;3.40;;
31730;SDS011;18310;55.586;12.286;2023-05-21T14:59:29;4.43;;;2.50;;
31730;SDS011;18310;55.586;12.286;2023-05-21T15:02:33;4.60;;;2.97;;
31730;SDS011;18310;55.586;12.286;2023-05-21T15:05:37;5.13;;;3.38;;
31730;SDS011;18310;55.586;12.286;2023-05-21T15:08:40;8.20;;;3.42;;
31730;SDS011;18310;55.586;12.286;2023-05-21T15:11:45;6.60;;;3.05;;
31730;SDS011;18310;55.586;12.286;2023-05-21T15:14:53;4.20;;;2.67;;
31730;SDS011;18310;55.586;12.286;2023-05-21T15:18:18;5.47;;;2.88;;
31730;SDS011;18310;55.586;12.286;2023-05-21T15:21:23;9.20;;;2.95;;
31730;SDS011;18310;55.586;12.286;2023-05-21T15:24:28;6.70;;;3.35;;
31730;SDS011;18310;55.586;12.286;2023-05-21T15:27:32;6.67;;;3.03;;
31730;SDS011;18310;55.586;12.286;2023-05-21T15:30:35;7.53;;;3.20;;
31730;SDS011;18310;55.586;12.286;2023-05-21T15:33:41;11.93;;;3.40;;
31730;SDS011;18310;55.586;12.286;2023-05-21T15:36:45;7.85;;;3.78;;
31730;SDS011;18310;55.586;12.286;2023-05-21T15:39:48;5.57;;;3.23;;
31730;SDS011;18310;55.586;12.286;2023-05-21T15:42:51;9.23;;;3.43;;
31730;SDS011;18310;55.586;12.286;2023-05-21T15:45:54;7.50;;;3.70;;
31730;SDS011;18310;55.586;12.286;2023-05-21T15:48:59;5.70;;;3.67;;
31730;SDS011;18310;55.586;12.286;2023-05-21T15:52:03;13.98;;;3.55;;
31730;SDS011;18310;55.586;12.286;2023-05-21T15:58:10;9.95;;;3.63;;
31730;SDS011;18310;55.586;12.286;2023-05-21T16:01:14;6.63;;;3.30;;
31730;SDS011;18310;55.586;12.286;2023-05-21T16:04:18;8.73;;;3.42;;
31730;SDS011;18310;55.586;12.286;2023-05-21T16:07:22;6.88;;;3.45;;
31730;SDS011;18310;55.586;12.286;2023-05-21T16:10:26;6.95;;;3.80;;
31730;SDS011;18310;55.586;12.286;2023-05-21T16:13:29;7.78;;;3.30;;
31730;SDS011;18310;55.586;12.286;2023-05-21T16:16:32;9.90;;;3.50;;
31730;SDS011;18310;55.586;12.286;2023-05-21T16:19:37;8.98;;;3.58;;
31730;SDS011;18310;55.586;12.286;2023-05-21T16:22:40;6.53;;;3.78;;
31730;SDS011;18310;55.586;12.286;2023-05-21T16:25:44;4.95;;;3.05;;
31730;SDS011;18310;55.586;12.286;2023-05-21T16:28:48;7.72;;;3.80;;
31730;SDS011;18310;55.586;12.286;2023-05-21T16:31:51;5.43;;;2.97;;
31730;SDS011;18310;55.586;12.286;2023-05-21T16:34:56;7.57;;;3.08;;
31730;SDS011;18310;55.586;12.286;2023-05-21T16:37:59;5.43;;;3.60;;
31730;SDS011;18310;55.586;12.286;2023-05-21T16:41:02;10.73;;;3.80;;
31730;SDS011;18310;55.586;12.286;2023-05-21T16:44:06;6.22;;;3.72;;
31730;SDS011;18310;55.586;12.286;2023-05-21T16:47:09;6.87;;;4.20;;
31730;SDS011;18310;55.586;12.286;2023-05-21T16:50:14;5.28;;;3.35;;
31730;SDS011;18310;55.586;12.286;2023-05-21T16:53:17;10.77;;;3.53;;
31730;SDS011;18310;55.586;12.286;2023-05-21T16:56:21;9.30;;;3.93;;
31730;SDS011;18310;55.586;12.286;2023-05-21T16:59:24;4.80;;;3.42;;
31730;SDS011;18310;55.586;12.286;2023-05-21T17:02:28;6.93;;;3.57;;
31730;SDS011;18310;55.586;12.286;2023-05-21T17:05:32;5.63;;;3.35;;
31730;SDS011;18310;55.586;12.286;2023-05-21T17:08:36;5.63;;;3.58;;
31730;SDS011;18310;55.586;12.286;2023-05-21T17:11:39;5.78;;;3.67;;
31730;SDS011;18310;55.586;12.286;2023-05-21T17:14:44;6.05;;;3.90;;
31730;SDS011;18310;55.586;12.286;2023-05-21T17:17:47;5.10;;;3.80;;
31730;SDS011;18310;55.586;12.286;2023-05-21T17:20:53;6.20;;;3.70;;
31730;SDS011;18310;55.586;12.286;2023-05-21T17:23:56;5.57;;;3.42;;
31730;SDS011;18310;55.586;12.286;2023-05-21T17:27:00;8.30;;;3.28;;
31730;SDS011;18310;55.586;12.286;2023-05-21T17:30:04;6.68;;;3.92;;
31730;SDS011;18310;55.586;12.286;2023-05-21T17:33:09;4.20;;;3.28;;
31730;SDS011;18310;55.586;12.286;2023-05-21T17:36:15;9.10;;;4.13;;
31730;SDS011;18310;55.586;12.286;2023-05-21T17:39:19;5.53;;;3.60;;
31730;SDS011;18310;55.586;12.286;2023-05-21T17:42:23;5.40;;;3.78;;
31730;SDS011;18310;55.586;12.286;2023-05-21T17:45:26;9.32;;;3.80;;
31730;SDS011;18310;55.586;12.286;2023-05-21T17:48:30;8.10;;;4.07;;
31730;SDS011;18310;55.586;12.286;2023-05-21T17:51:35;5.72;;;3.83;;
31730;SDS011;18310;55.586;12.286;2023-05-21T17:54:39;5.53;;;3.58;;
31730;SDS011;18310;55.586;12.286;2023-05-21T17:57:42;6.57;;;4.55;;
31730;SDS011;18310;55.586;12.286;2023-05-21T18:00:46;6.07;;;3.67;;
31730;SDS011;18310;55.586;12.286;2023-05-21T18:03:50;7.65;;;3.78;;
31730;SDS011;18310;55.586;12.286;2023-05-21T18:06:55;8.07;;;3.85;;
31730;SDS011;18310;55.586;12.286;2023-05-21T18:09:58;8.20;;;3.33;;
31730;SDS011;18310;55.586;12.286;2023-05-21T18:13:02;5.45;;;3.33;;
31730;SDS011;18310;55.586;12.286;2023-05-21T18:18:46;7.72;;;3.67;;
31730;SDS011;18310;55.586;12.286;2023-05-21T18:21:50;5.70;;;3.67;;
31730;SDS011;18310;55.586;12.286;2023-05-21T18:24:53;7.13;;;4.05;;
31730;SDS011;18310;55.586;12.286;2023-05-21T18:27:57;8.40;;;4.25;;
31730;SDS011;18310;55.586;12.286;2023-05-21T18:31:02;7.13;;;3.95;;
31730;SDS011;18310;55.586;12.286;2023-05-21T18:34:07;8.38;;;3.97;;
31730;SDS011;18310;55.586;12.286;2023-05-21T18:37:11;12.27;;;4.53;;
31730;SDS011;18310;55.586;12.286;2023-05-21T18:40:15;5.85;;;3.83;;
31730;SDS011;18310;55.586;12.286;2023-05-21T18:43:19;6.57;;;3.78;;
31730;SDS011;18310;55.586;12.286;2023-05-21T18:46:22;5.43;;;3.80;;
31730;SDS011;18310;55.586;12.286;2023-05-21T18:49:27;6.90;;;4.90;;
31730;SDS011;18310;55.586;12.286;2023-05-21T18:52:34;6.07;;;3.95;;
31730;SDS011;18310;55.586;12.286;2023-05-21T18:55:38;8.35;;;4.90;;
31730;SDS011;18310;55.586;12.286;2023-05-21T18:58:41;7.22;;;4.40;;